sensor_id;sensor_type;location;lat;lon;timestamp;pressure;altitude;pressure_sealevel;temperature;humidity
37848;BME280;23688;33.130;-117.188;2022-10-17T00:01:28;99522.16;;;20.93;79.69
37848;BME280;23688;33.130;-117.188;2022-10-17T00:03:54;99531.81;;;20.99;80.01
37848;BME280;23688;33.130;-117.188;2022-10-17T00:06:20;99535.34;;;21.05;79.90
37848;BME280;23688;33.130;-117.188;2022-10-17T00:08:47;99538.88;;;20.93;80.61
37848;BME280;23688;33.130;-117.188;2022-10-17T00:11:17;99532.69;;;20.84;80.83
37848;BME280;23688;33.130;-117.188;2022-10-17T00:13:44;99527.44;;;20.78;80.28
37848;BME280;23688;33.130;-117.188;2022-10-17T00:16:11;99532.69;;;20.79;79.81
37848;BME280;23688;33.130;-117.188;2022-10-17T00:18:37;99526.53;;;20.65;80.66
37848;BME280;23688;33.130;-117.188;2022-10-17T00:21:04;99537.09;;;20.74;80.31
37848;BME280;23688;33.130;-117.188;2022-10-17T00:23:31;99532.66;;;20.65;80.95
37848;BME280;23688;33.130;-117.188;2022-10-17T00:26:03;99532.63;;;20.45;81.61
37848;BME280;23688;33.130;-117.188;2022-10-17T00:28:30;99534.38;;;20.37;82.91
37848;BME280;23688;33.130;-117.188;2022-10-17T00:30:59;99519.41;;;20.33;83.34
37848;BME280;23688;33.130;-117.188;2022-10-17T00:33:26;99533.50;;;20.50;82.98
37848;BME280;23688;33.130;-117.188;2022-10-17T00:36:09;99540.50;;;20.30;84.06
37848;BME280;23688;33.130;-117.188;2022-10-17T00:38:37;99541.34;;;20.23;84.69
37848;BME280;23688;33.130;-117.188;2022-10-17T00:41:04;99544.84;;;20.14;85.99
37848;BME280;23688;33.130;-117.188;2022-10-17T00:43:49;99535.16;;;20.12;86.21
37848;BME280;23688;33.130;-117.188;2022-10-17T00:46:15;99541.31;;;20.10;86.27
37848;BME280;23688;33.130;-117.188;2022-10-17T00:48:42;99531.63;;;19.97;86.57
37848;BME280;23688;33.130;-117.188;2022-10-17T00:51:09;99525.38;;;19.78;87.38
37848;BME280;23688;33.130;-117.188;2022-10-17T00:53:36;99548.97;;;19.64;86.84
37848;BME280;23688;33.130;-117.188;2022-10-17T00:56:04;99537.50;;;19.49;87.93
37848;BME280;23688;33.130;-117.188;2022-10-17T00:58:34;99544.47;;;19.42;88.27
37848;BME280;23688;33.130;-117.188;2022-10-17T01:01:02;99551.56;;;19.52;88.90
37848;BME280;23688;33.130;-117.188;2022-10-17T01:03:29;99552.34;;;19.39;90.72
37848;BME280;23688;33.130;-117.188;2022-10-17T01:05:57;99554.91;;;19.27;91.46
37848;BME280;23688;33.130;-117.188;2022-10-17T01:08:23;99559.13;;;19.05;92.93
37848;BME280;23688;33.130;-117.188;2022-10-17T01:14:12;99567.56;;;18.74;95.40
37848;BME280;23688;33.130;-117.188;2022-10-17T01:16:44;99565.75;;;18.67;95.95
37848;BME280;23688;33.130;-117.188;2022-10-17T01:22:11;99574.41;;;18.54;97.62
37848;BME280;23688;33.130;-117.188;2022-10-17T01:33:13;99574.19;;;18.34;99.64
37848;BME280;23688;33.130;-117.188;2022-10-17T01:38:12;99585.50;;;18.27;100.00
37848;BME280;23688;33.130;-117.188;2022-10-17T01:40:47;99591.63;;;18.27;100.00
37848;BME280;23688;33.130;-117.188;2022-10-17T01:43:20;99581.09;;;18.24;100.00
37848;BME280;23688;33.130;-117.188;2022-10-17T01:46:02;99579.34;;;18.26;100.00
37848;BME280;23688;33.130;-117.188;2022-10-17T01:48:35;99573.94;;;18.12;100.00
37848;BME280;23688;33.130;-117.188;2022-10-17T01:51:17;99594.19;;;18.20;100.00
37848;BME280;23688;33.130;-117.188;2022-10-17T01:53:55;99599.47;;;18.23;100.00
37848;BME280;23688;33.130;-117.188;2022-10-17T01:56:25;99599.38;;;18.15;100.00
37848;BME280;23688;33.130;-117.188;2022-10-17T01:59:19;99595.06;;;18.23;100.00
37848;BME280;23688;33.130;-117.188;2022-10-17T02:01:50;99595.16;;;18.29;100.00
37848;BME280;23688;33.130;-117.188;2022-10-17T02:04:18;99612.81;;;18.41;100.00
37848;BME280;23688;33.130;-117.188;2022-10-17T02:06:44;99616.41;;;18.49;99.50
37848;BME280;23688;33.130;-117.188;2022-10-17T02:09:24;99612.13;;;18.57;98.44
37848;BME280;23688;33.130;-117.188;2022-10-17T02:20:05;99630.69;;;18.71;97.75
37848;BME280;23688;33.130;-117.188;2022-10-17T02:22:39;99631.78;;;18.92;95.36
37848;BME280;23688;33.130;-117.188;2022-10-17T02:25:44;99637.22;;;19.07;93.85
37848;BME280;23688;33.130;-117.188;2022-10-17T02:31:05;99638.19;;;19.21;92.24
37848;BME280;23688;33.130;-117.188;2022-10-17T02:33:36;99639.03;;;19.19;92.12
37848;BME280;23688;33.130;-117.188;2022-10-17T02:36:18;99647.91;;;19.27;91.88
37848;BME280;23688;33.130;-117.188;2022-10-17T02:38:46;99650.53;;;19.27;91.09
37848;BME280;23688;33.130;-117.188;2022-10-17T02:41:16;99648.78;;;19.28;91.26
37848;BME280;23688;33.130;-117.188;2022-10-17T02:43:43;99647.03;;;19.27;91.14
37848;BME280;23688;33.130;-117.188;2022-10-17T02:46:14;99654.06;;;19.28;91.09
37848;BME280;23688;33.130;-117.188;2022-10-17T02:49:16;99652.25;;;19.23;91.39
37848;BME280;23688;33.130;-117.188;2022-10-17T02:51:51;99658.34;;;19.18;91.92
37848;BME280;23688;33.130;-117.188;2022-10-17T02:57:01;99645.97;;;19.06;92.56
37848;BME280;23688;33.130;-117.188;2022-10-17T02:59:32;99640.66;;;19.00;92.69
37848;BME280;23688;33.130;-117.188;2022-10-17T03:02:04;99651.16;;;19.01;92.93
37848;BME280;23688;33.130;-117.188;2022-10-17T03:04:31;99642.34;;;18.96;92.82
37848;BME280;23688;33.130;-117.188;2022-10-17T03:06:58;99643.31;;;19.03;92.40
37848;BME280;23688;33.130;-117.188;2022-10-17T03:09:25;99637.94;;;18.94;92.22
37848;BME280;23688;33.130;-117.188;2022-10-17T03:11:51;99649.41;;;19.00;93.07
37848;BME280;23688;33.130;-117.188;2022-10-17T03:14:17;99651.16;;;19.01;92.60
37848;BME280;23688;33.130;-117.188;2022-10-17T03:16:43;99661.69;;;18.98;92.54
37848;BME280;23688;33.130;-117.188;2022-10-17T03:19:12;99650.16;;;18.86;92.92
37848;BME280;23688;33.130;-117.188;2022-10-17T03:21:38;99655.41;;;18.87;92.83
37848;BME280;23688;33.130;-117.188;2022-10-17T03:24:09;99647.31;;;18.70;93.18
37848;BME280;23688;33.130;-117.188;2022-10-17T03:26:35;99658.75;;;18.74;93.30
37848;BME280;23688;33.130;-117.188;2022-10-17T03:29:02;99655.22;;;18.72;93.05
37848;BME280;23688;33.130;-117.188;2022-10-17T03:31:30;99662.25;;;18.71;92.93
37848;BME280;23688;33.130;-117.188;2022-10-17T03:33:56;99652.50;;;18.63;93.22
37848;BME280;23688;33.130;-117.188;2022-10-17T03:36:23;99656.03;;;18.63;93.72
37848;BME280;23688;33.130;-117.188;2022-10-17T03:38:53;99670.94;;;18.67;93.75
37848;BME280;23688;33.130;-117.188;2022-10-17T03:41:19;99665.63;;;18.63;93.58
37848;BME280;23688;33.130;-117.188;2022-10-17T03:43:46;99669.13;;;18.60;93.90
37848;BME280;23688;33.130;-117.188;2022-10-17T03:46:12;99678.72;;;18.58;94.32
37848;BME280;23688;33.130;-117.188;2022-10-17T03:48:38;99676.09;;;18.58;94.67
37848;BME280;23688;33.130;-117.188;2022-10-17T03:51:06;99668.19;;;18.53;94.61
37848;BME280;23688;33.130;-117.188;2022-10-17T03:53:33;99674.38;;;18.60;94.57
37848;BME280;23688;33.130;-117.188;2022-10-17T03:56:15;99681.41;;;18.61;94.98
37848;BME280;23688;33.130;-117.188;2022-10-17T03:58:42;99678.69;;;18.55;94.71
37848;BME280;23688;33.130;-117.188;2022-10-17T04:01:11;99681.34;;;18.58;94.79
37848;BME280;23688;33.130;-117.188;2022-10-17T04:03:38;99685.75;;;18.57;94.85
37848;BME280;23688;33.130;-117.188;2022-10-17T04:06:09;99678.72;;;18.58;94.34
37848;BME280;23688;33.130;-117.188;2022-10-17T04:08:36;99672.59;;;18.56;93.85
37848;BME280;23688;33.130;-117.188;2022-10-17T04:11:05;99681.31;;;18.55;93.69
37848;BME280;23688;33.130;-117.188;2022-10-17T04:13:32;99680.47;;;18.57;93.69
37848;BME280;23688;33.130;-117.188;2022-10-17T04:16:05;99686.63;;;18.58;93.66
37848;BME280;23688;33.130;-117.188;2022-10-17T04:18:32;99698.03;;;18.58;93.53
37848;BME280;23688;33.130;-117.188;2022-10-17T04:21:03;99679.53;;;18.51;94.08
37848;BME280;23688;33.130;-117.188;2022-10-17T04:23:30;99692.78;;;18.58;94.35
37848;BME280;23688;33.130;-117.188;2022-10-17T04:25:58;99683.09;;;18.56;94.02
37848;BME280;23688;33.130;-117.188;2022-10-17T04:28:26;99681.31;;;18.53;93.94
37848;BME280;23688;33.130;-117.188;2022-10-17T04:31:03;99690.06;;;18.52;94.19
37848;BME280;23688;33.130;-117.188;2022-10-17T04:33:30;99688.31;;;18.53;94.13
37848;BME280;23688;33.130;-117.188;2022-10-17T04:36:02;99690.06;;;18.52;93.96
37848;BME280;23688;33.130;-117.188;2022-10-17T04:38:29;99689.09;;;18.46;94.36
37848;BME280;23688;33.130;-117.188;2022-10-17T04:40:58;99690.88;;;18.47;95.03
37848;BME280;23688;33.130;-117.188;2022-10-17T04:43:33;99673.19;;;18.35;95.18
37848;BME280;23688;33.130;-117.188;2022-10-17T04:46:02;99689.84;;;18.35;95.31
37848;BME280;23688;33.130;-117.188;2022-10-17T04:48:29;99690.69;;;18.33;95.67
37848;BME280;23688;33.130;-117.188;2022-10-17T04:50:57;99688.06;;;18.33;95.73
37848;BME280;23688;33.130;-117.188;2022-10-17T04:53:24;99695.03;;;18.29;96.03
37848;BME280;23688;33.130;-117.188;2022-10-17T04:55:52;99688.81;;;18.23;96.05
37848;BME280;23688;33.130;-117.188;2022-10-17T04:58:19;99699.28;;;18.21;95.34
37848;BME280;23688;33.130;-117.188;2022-10-17T05:00:45;99697.53;;;18.20;95.41
37848;BME280;23688;33.130;-117.188;2022-10-17T05:03:12;99684.25;;;18.09;95.41
37848;BME280;23688;33.130;-117.188;2022-10-17T05:05:39;99699.19;;;18.13;95.20
37848;BME280;23688;33.130;-117.188;2022-10-17T05:08:08;99696.56;;;18.12;95.49
37848;BME280;23688;33.130;-117.188;2022-10-17T05:10:37;99699.09;;;18.06;95.80
37848;BME280;23688;33.130;-117.188;2022-10-17T05:13:04;99691.91;;;17.92;96.58
37848;BME280;23688;33.130;-117.188;2022-10-17T05:15:33;99706.78;;;17.93;96.93
37848;BME280;23688;33.130;-117.188;2022-10-17T05:18:01;99703.31;;;17.96;96.62
37848;BME280;23688;33.130;-117.188;2022-10-17T05:20:28;99697.16;;;17.94;96.29
37848;BME280;23688;33.130;-117.188;2022-10-17T05:22:54;99707.66;;;17.94;96.84
37848;BME280;23688;33.130;-117.188;2022-10-17T05:25:23;99690.03;;;17.87;96.91
37848;BME280;23688;33.130;-117.188;2022-10-17T05:27:53;99709.44;;;17.96;96.68
37848;BME280;23688;33.130;-117.188;2022-10-17T05:30:19;99706.91;;;18.00;96.30
37848;BME280;23688;33.130;-117.188;2022-10-17T05:32:46;99692.78;;;17.94;96.64
37848;BME280;23688;33.130;-117.188;2022-10-17T05:35:12;99704.28;;;18.01;96.85
37848;BME280;23688;33.130;-117.188;2022-10-17T05:37:39;99681.31;;;17.89;96.87
37848;BME280;23688;33.130;-117.188;2022-10-17T05:40:06;99696.38;;;18.00;96.47
37848;BME280;23688;33.130;-117.188;2022-10-17T05:42:32;99697.25;;;18.00;96.48
37848;BME280;23688;33.130;-117.188;2022-10-17T05:44:58;99689.31;;;17.97;96.00
37848;BME280;23688;33.130;-117.188;2022-10-17T05:47:25;99699.84;;;17.99;95.40
37848;BME280;23688;33.130;-117.188;2022-10-17T05:49:51;99691.94;;;17.97;95.08
37848;BME280;23688;33.130;-117.188;2022-10-17T05:52:17;99696.16;;;17.87;94.31
37848;BME280;23688;33.130;-117.188;2022-10-17T05:54:43;99694.38;;;17.83;94.21
37848;BME280;23688;33.130;-117.188;2022-10-17T05:57:10;99695.22;;;17.82;94.38
37848;BME280;23688;33.130;-117.188;2022-10-17T05:59:36;99689.81;;;17.74;93.89
37848;BME280;23688;33.130;-117.188;2022-10-17T06:02:02;99689.75;;;17.68;93.49
37848;BME280;23688;33.130;-117.188;2022-10-17T06:04:29;99677.38;;;17.61;93.38
37848;BME280;23688;33.130;-117.188;2022-10-17T06:06:55;99686.09;;;17.59;93.52
37848;BME280;23688;33.130;-117.188;2022-10-17T06:09:23;99681.63;;;17.54;93.91
37848;BME280;23688;33.130;-117.188;2022-10-17T06:11:51;99671.06;;;17.48;94.25
37848;BME280;23688;33.130;-117.188;2022-10-17T06:14:19;99679.00;;;17.54;94.65
37848;BME280;23688;33.130;-117.188;2022-10-17T06:16:46;99667.59;;;17.52;94.87
37848;BME280;23688;33.130;-117.188;2022-10-17T06:19:12;99672.06;;;17.57;95.50
37848;BME280;23688;33.130;-117.188;2022-10-17T06:21:39;99667.63;;;17.55;95.95
37848;BME280;23688;33.130;-117.188;2022-10-17T06:24:05;99662.34;;;17.52;95.91
37848;BME280;23688;33.130;-117.188;2022-10-17T06:26:33;99678.09;;;17.52;96.20
37848;BME280;23688;33.130;-117.188;2022-10-17T06:29:00;99661.44;;;17.49;96.50
37848;BME280;23688;33.130;-117.188;2022-10-17T06:31:27;99677.19;;;17.49;96.11
37848;BME280;23688;33.130;-117.188;2022-10-17T06:33:53;99670.03;;;17.40;95.99
37848;BME280;23688;33.130;-117.188;2022-10-17T06:36:19;99672.69;;;17.43;96.09
37848;BME280;23688;33.130;-117.188;2022-10-17T06:38:46;99673.56;;;17.42;95.90
37848;BME280;23688;33.130;-117.188;2022-10-17T06:41:14;99657.66;;;17.33;96.36
37848;BME280;23688;33.130;-117.188;2022-10-17T06:43:42;99660.25;;;17.30;96.33
37848;BME280;23688;33.130;-117.188;2022-10-17T06:46:14;99667.31;;;17.36;96.66
37848;BME280;23688;33.130;-117.188;2022-10-17T06:48:42;99659.41;;;17.32;97.37
37848;BME280;23688;33.130;-117.188;2022-10-17T06:51:09;99656.81;;;17.36;98.46
37848;BME280;23688;33.130;-117.188;2022-10-17T06:53:37;99656.88;;;17.37;99.02
37848;BME280;23688;33.130;-117.188;2022-10-17T06:56:05;99655.06;;;17.36;99.41
37848;BME280;23688;33.130;-117.188;2022-10-17T06:58:34;99650.75;;;17.38;99.63
37848;BME280;23688;33.130;-117.188;2022-10-17T07:01:05;99650.75;;;17.38;99.89
37848;BME280;23688;33.130;-117.188;2022-10-17T07:03:32;99630.56;;;17.34;99.81
37848;BME280;23688;33.130;-117.188;2022-10-17T07:06:00;99642.94;;;17.41;99.83
37848;BME280;23688;33.130;-117.188;2022-10-17T07:08:27;99636.75;;;17.38;100.00
37848;BME280;23688;33.130;-117.188;2022-10-17T07:10:53;99635.81;;;17.34;100.00
37848;BME280;23688;33.130;-117.188;2022-10-17T07:13:22;99632.28;;;17.32;100.00
37848;BME280;23688;33.130;-117.188;2022-10-17T07:15:48;99641.06;;;17.36;100.00
37848;BME280;23688;33.130;-117.188;2022-10-17T07:18:15;99648.94;;;17.36;100.00
37848;BME280;23688;33.130;-117.188;2022-10-17T07:20:41;99627.84;;;17.28;100.00
37848;BME280;23688;33.130;-117.188;2022-10-17T07:23:07;99637.53;;;17.33;100.00
37848;BME280;23688;33.130;-117.188;2022-10-17T07:25:35;99638.44;;;17.36;100.00
37848;BME280;23688;33.130;-117.188;2022-10-17T07:28:03;99639.41;;;17.39;100.00
37848;BME280;23688;33.130;-117.188;2022-10-17T07:30:29;99639.41;;;17.39;100.00
37848;BME280;23688;33.130;-117.188;2022-10-17T07:32:56;99626.25;;;17.38;100.00
37848;BME280;23688;33.130;-117.188;2022-10-17T07:35:22;99628.06;;;17.43;100.00
37848;BME280;23688;33.130;-117.188;2022-10-17T07:37:48;99625.38;;;17.37;100.00
37848;BME280;23688;33.130;-117.188;2022-10-17T07:40:14;99613.97;;;17.35;100.00
37848;BME280;23688;33.130;-117.188;2022-10-17T07:42:41;99628.06;;;17.43;100.00
37848;BME280;23688;33.130;-117.188;2022-10-17T07:45:07;99628.91;;;17.39;100.00
37848;BME280;23688;33.130;-117.188;2022-10-17T07:47:34;99626.28;;;17.41;100.00
37848;BME280;23688;33.130;-117.188;2022-10-17T07:50:02;99643.91;;;17.46;100.00
37848;BME280;23688;33.130;-117.188;2022-10-17T07:52:29;99635.06;;;17.41;100.00
37848;BME280;23688;33.130;-117.188;2022-10-17T07:54:55;99628.91;;;17.39;100.00
37848;BME280;23688;33.130;-117.188;2022-10-17T07:57:21;99632.41;;;17.40;100.00
37848;BME280;23688;33.130;-117.188;2022-10-17T07:59:48;99634.94;;;17.35;100.00
37848;BME280;23688;33.130;-117.188;2022-10-17T08:02:23;99634.00;;;17.30;100.00
37848;BME280;23688;33.130;-117.188;2022-10-17T08:04:51;99630.25;;;17.16;100.00
37848;BME280;23688;33.130;-117.188;2022-10-17T08:07:18;99637.28;;;17.18;99.29
37848;BME280;23688;33.130;-117.188;2022-10-17T08:09:45;99630.25;;;17.16;98.71
37848;BME280;23688;33.130;-117.188;2022-10-17T08:12:12;99635.50;;;17.16;98.78
37848;BME280;23688;33.130;-117.188;2022-10-17T08:14:41;99631.97;;;17.14;98.91
37848;BME280;23688;33.130;-117.188;2022-10-17T08:17:08;99632.72;;;17.06;98.22
37848;BME280;23688;33.130;-117.188;2022-10-17T08:19:38;99634.38;;;17.00;98.53
37848;BME280;23688;33.130;-117.188;2022-10-17T08:22:05;99635.25;;;17.00;98.50
37848;BME280;23688;33.130;-117.188;2022-10-17T08:24:32;99623.84;;;16.98;98.76
37848;BME280;23688;33.130;-117.188;2022-10-17T08:26:58;99627.38;;;17.00;99.29
37848;BME280;23688;33.130;-117.188;2022-10-17T08:29:25;99619.56;;;17.03;99.31
37848;BME280;23688;33.130;-117.188;2022-10-17T08:31:52;99629.13;;;17.01;99.50
37848;BME280;23688;33.130;-117.188;2022-10-17T08:34:18;99639.63;;;17.00;99.23
37848;BME280;23688;33.130;-117.188;2022-10-17T08:36:44;99635.13;;;16.93;98.64
37848;BME280;23688;33.130;-117.188;2022-10-17T08:39:11;99629.75;;;16.86;98.09
37848;BME280;23688;33.130;-117.188;2022-10-17T08:41:49;99626.19;;;16.83;97.70
37848;BME280;23688;33.130;-117.188;2022-10-17T08:44:27;99619.13;;;16.79;97.96
37848;BME280;23688;33.130;-117.188;2022-10-17T08:47:00;99618.09;;;16.72;98.02
37848;BME280;23688;33.130;-117.188;2022-10-17T08:49:48;99625.13;;;16.73;98.32
37848;BME280;23688;33.130;-117.188;2022-10-17T08:52:35;99621.53;;;16.68;97.55
37848;BME280;23688;33.130;-117.188;2022-10-17T08:55:13;99618.72;;;16.60;97.56
37848;BME280;23688;33.130;-117.188;2022-10-17T08:57:40;99630.88;;;16.55;97.95
37848;BME280;23688;33.130;-117.188;2022-10-17T09:00:19;99629.94;;;16.52;98.63
37848;BME280;23688;33.130;-117.188;2022-10-17T09:05:48;99628.00;;;16.43;98.38
37848;BME280;23688;33.130;-117.188;2022-10-17T09:08:37;99637.66;;;16.45;99.04
37848;BME280;23688;33.130;-117.188;2022-10-17T09:11:14;99636.75;;;16.43;99.48
37848;BME280;23688;33.130;-117.188;2022-10-17T09:14:02;99616.50;;;16.35;98.71
37848;BME280;23688;33.130;-117.188;2022-10-17T09:16:41;99631.44;;;16.39;99.11
37848;BME280;23688;33.130;-117.188;2022-10-17T09:19:35;99627.03;;;16.38;99.04
37848;BME280;23688;33.130;-117.188;2022-10-17T09:22:14;99626.06;;;16.33;99.29
37848;BME280;23688;33.130;-117.188;2022-10-17T09:25:01;99623.41;;;16.31;99.64
37848;BME280;23688;33.130;-117.188;2022-10-17T09:27:37;99622.53;;;16.31;99.88
37848;BME280;23688;33.130;-117.188;2022-10-17T09:30:22;99624.13;;;16.24;100.00
37848;BME280;23688;33.130;-117.188;2022-10-17T09:32:50;99628.44;;;16.20;99.63
37848;BME280;23688;33.130;-117.188;2022-10-17T09:35:19;99623.97;;;16.16;99.79
37848;BME280;23688;33.130;-117.188;2022-10-17T09:37:46;99624.91;;;16.18;100.00
37848;BME280;23688;33.130;-117.188;2022-10-17T09:40:31;99612.59;;;16.14;100.00
37848;BME280;23688;33.130;-117.188;2022-10-17T09:43:04;99623.09;;;16.16;100.00
37848;BME280;23688;33.130;-117.188;2022-10-17T09:45:44;99618.72;;;16.15;100.00
37848;BME280;23688;33.130;-117.188;2022-10-17T09:50:50;99602.59;;;15.95;100.00
37848;BME280;23688;33.130;-117.188;2022-10-17T09:53:30;99612.97;;;15.90;100.00
37848;BME280;23688;33.130;-117.188;2022-10-17T09:56:04;99598.75;;;15.79;100.00
37848;BME280;23688;33.130;-117.188;2022-10-17T09:58:52;99594.38;;;15.79;100.00
37848;BME280;23688;33.130;-117.188;2022-10-17T10:01:30;99602.31;;;15.82;100.00
37848;BME280;23688;33.130;-117.188;2022-10-17T10:04:26;99612.00;;;15.87;100.00
37848;BME280;23688;33.130;-117.188;2022-10-17T10:07:04;99610.31;;;15.89;100.00
37848;BME280;23688;33.130;-117.188;2022-10-17T10:09:33;99604.13;;;15.85;100.00
37848;BME280;23688;33.130;-117.188;2022-10-17T10:12:04;99595.25;;;15.78;100.00
37848;BME280;23688;33.130;-117.188;2022-10-17T10:14:34;99600.59;;;15.84;100.00
37848;BME280;23688;33.130;-117.188;2022-10-17T10:17:05;99578.63;;;15.76;100.00
37848;BME280;23688;33.130;-117.188;2022-10-17T10:19:33;99595.53;;;15.91;100.00
37848;BME280;23688;33.130;-117.188;2022-10-17T10:22:01;99598.97;;;15.90;100.00
37848;BME280;23688;33.130;-117.188;2022-10-17T10:24:28;99606.75;;;15.85;100.00
37848;BME280;23688;33.130;-117.188;2022-10-17T10:26:57;99582.22;;;15.81;100.00
37848;BME280;23688;33.130;-117.188;2022-10-17T10:29:26;99599.84;;;15.89;100.00
37848;BME280;23688;33.130;-117.188;2022-10-17T10:37:27;99593.34;;;15.71;99.64
37848;BME280;23688;33.130;-117.188;2022-10-17T10:39:56;99597.63;;;15.69;100.00
37848;BME280;23688;33.130;-117.188;2022-10-17T10:42:29;99590.53;;;15.65;100.00
37848;BME280;23688;33.130;-117.188;2022-10-17T10:45:40;99576.41;;;15.57;100.00
37848;BME280;23688;33.130;-117.188;2022-10-17T10:47:59;99584.16;;;15.52;100.00
37848;BME280;23688;33.130;-117.188;2022-10-17T10:50:43;99586.66;;;15.48;100.00
37848;BME280;23688;33.130;-117.188;2022-10-17T10:56:03;99580.34;;;15.38;100.00
37848;BME280;23688;33.130;-117.188;2022-10-17T10:58:39;99579.47;;;15.37;100.00
37848;BME280;23688;33.130;-117.188;2022-10-17T11:01:21;99579.47;;;15.37;100.00
37848;BME280;23688;33.130;-117.188;2022-10-17T11:06:37;99583.78;;;15.35;100.00
37848;BME280;23688;33.130;-117.188;2022-10-17T11:11:58;99589.06;;;15.38;100.00
37848;BME280;23688;33.130;-117.188;2022-10-17T11:23:17;99589.28;;;15.46;100.00
37848;BME280;23688;33.130;-117.188;2022-10-17T11:25:58;99591.06;;;15.49;100.00
37848;BME280;23688;33.130;-117.188;2022-10-17T11:28:26;99595.38;;;15.47;100.00
37848;BME280;23688;33.130;-117.188;2022-10-17T11:31:02;99580.44;;;15.43;100.00
37848;BME280;23688;33.130;-117.188;2022-10-17T11:36:08;99584.94;;;15.48;100.00
37848;BME280;23688;33.130;-117.188;2022-10-17T11:38:40;99588.47;;;15.49;100.00
37848;BME280;23688;33.130;-117.188;2022-10-17T11:41:13;99591.91;;;15.48;100.00
37848;BME280;23688;33.130;-117.188;2022-10-17T11:43:55;99588.47;;;15.49;100.00
37848;BME280;23688;33.130;-117.188;2022-10-17T11:46:24;99590.25;;;15.51;100.00
37848;BME280;23688;33.130;-117.188;2022-10-17T11:51:44;99585.84;;;15.49;100.00
37848;BME280;23688;33.130;-117.188;2022-10-17T12:02:27;99580.72;;;15.53;100.00
37848;BME280;23688;33.130;-117.188;2022-10-17T12:05:02;99573.69;;;15.52;100.00
37848;BME280;23688;33.130;-117.188;2022-10-17T12:08:08;99578.13;;;15.55;100.00
37848;BME280;23688;33.130;-117.188;2022-10-17T12:10:52;99566.72;;;15.53;100.00
37848;BME280;23688;33.130;-117.188;2022-10-17T12:18:47;99577.34;;;15.59;100.00
37848;BME280;23688;33.130;-117.188;2022-10-17T12:21:14;99594.84;;;15.61;100.00
37848;BME280;23688;33.130;-117.188;2022-10-17T12:23:50;99572.94;;;15.56;100.00
37848;BME280;23688;33.130;-117.188;2022-10-17T12:26:28;99564.09;;;15.53;100.00
37848;BME280;23688;33.130;-117.188;2022-10-17T12:28:55;99576.38;;;15.55;100.00
37848;BME280;23688;33.130;-117.188;2022-10-17T12:31:24;99580.06;;;15.63;100.00
37848;BME280;23688;33.130;-117.188;2022-10-17T12:33:58;99579.25;;;15.68;100.00
37848;BME280;23688;33.130;-117.188;2022-10-17T12:49:42;99577.34;;;15.59;100.00
37848;BME280;23688;33.130;-117.188;2022-10-17T12:54:58;99580.72;;;15.55;100.00
37848;BME280;23688;33.130;-117.188;2022-10-17T13:00:02;99573.41;;;15.40;100.00
37848;BME280;23688;33.130;-117.188;2022-10-17T13:02:30;99575.97;;;15.37;100.00
37848;BME280;23688;33.130;-117.188;2022-10-17T13:05:05;99576.91;;;15.39;100.00
37848;BME280;23688;33.130;-117.188;2022-10-17T13:07:34;99585.63;;;15.39;100.00
37848;BME280;23688;33.130;-117.188;2022-10-17T13:10:01;99583.78;;;15.35;100.00
37848;BME280;23688;33.130;-117.188;2022-10-17T13:12:30;99589.88;;;15.34;100.00
37848;BME280;23688;33.130;-117.188;2022-10-17T13:14:58;99578.28;;;15.25;100.00
37848;BME280;23688;33.130;-117.188;2022-10-17T13:17:27;99579.16;;;15.25;100.00
37848;BME280;23688;33.130;-117.188;2022-10-17T13:19:56;99586.25;;;15.29;100.00
37848;BME280;23688;33.130;-117.188;2022-10-17T13:22:25;99589.75;;;15.31;100.00
37848;BME280;23688;33.130;-117.188;2022-10-17T13:25:04;99584.53;;;15.31;100.00
37848;BME280;23688;33.130;-117.188;2022-10-17T13:27:33;99573.19;;;15.29;100.00
37848;BME280;23688;33.130;-117.188;2022-10-17T13:32:43;99580.28;;;15.35;100.00
37848;BME280;23688;33.130;-117.188;2022-10-17T13:35:16;99585.50;;;15.35;100.00
37848;BME280;23688;33.130;-117.188;2022-10-17T13:37:45;99578.44;;;15.31;100.00
37848;BME280;23688;33.130;-117.188;2022-10-17T13:40:25;99587.13;;;15.30;100.00
37848;BME280;23688;33.130;-117.188;2022-10-17T13:42:54;99580.00;;;15.23;100.00
37848;BME280;23688;33.130;-117.188;2022-10-17T13:45:31;99599.34;;;15.29;100.00
37848;BME280;23688;33.130;-117.188;2022-10-17T13:48:04;99587.91;;;15.26;100.00
37848;BME280;23688;33.130;-117.188;2022-10-17T13:50:37;99597.53;;;15.27;100.00
37848;BME280;23688;33.130;-117.188;2022-10-17T13:53:16;99593.94;;;15.23;100.00
37848;BME280;23688;33.130;-117.188;2022-10-17T13:56:02;99605.22;;;15.20;100.00
37848;BME280;23688;33.130;-117.188;2022-10-17T13:58:33;99599.81;;;15.13;100.00
37848;BME280;23688;33.130;-117.188;2022-10-17T14:01:05;99602.25;;;15.07;100.00
37848;BME280;23688;33.130;-117.188;2022-10-17T14:03:34;99588.88;;;14.94;100.00
37848;BME280;23688;33.130;-117.188;2022-10-17T14:06:18;99607.41;;;15.04;100.00
37848;BME280;23688;33.130;-117.188;2022-10-17T14:08:59;99610.03;;;15.04;100.00
37848;BME280;23688;33.130;-117.188;2022-10-17T14:11:40;99610.88;;;15.03;100.00
37848;BME280;23688;33.130;-117.188;2022-10-17T14:14:19;99611.75;;;15.03;100.00
37848;BME280;23688;33.130;-117.188;2022-10-17T14:16:47;99619.69;;;15.06;100.00
37848;BME280;23688;33.130;-117.188;2022-10-17T14:19:30;99624.06;;;15.07;100.00
37848;BME280;23688;33.130;-117.188;2022-10-17T14:24:50;99627.53;;;15.06;100.00
37848;BME280;23688;33.130;-117.188;2022-10-17T14:29:54;99636.16;;;15.04;100.00